Portada
METAR-TAF:

METAR-TAF

Aeroports :

Harbin, Xina

latitud: 45-45N, longitud: 126-46E, altitud: 143 m

Observació

L'informe es va fer fa 26 minuts, a les 12:00 UTC
Vent 2 kt del Oest
Temperatura 4°C
Humitat 56%
Pressió 1022 hPa
Visibilitat 10 km o més
sense núvols per sota de 1500 mi sense presència de cumulonimbus.

METAR: ZYHB 171200Z 28001MPS CAVOK 04/M04 Q1022 NOSIG

Hora: 20:26 (12:26 UTC)

Pronòstic

L'informe es va fer fa 3 hores i 25 minuts, a les 09:01 UTC
Pronòstic vàlid del 17 a les 12 UTC al 18 a les 12 UTC
Vent 8 kt del Oest
Visibilitat: 6000 m
Escasses núvols a una alçada de 3300 ft

TAF: ZYHB 170901Z 1712/1812 26004MPS 6000 FEW033 TX14/1806Z TNM02/21Z

Observacions i pronòstics meteorològics de més de 4000 aeroports (METAR i TAF).

Les estacions disponibles són els punts grocs i vermells al mapa.

Posi el ratolí al punt desitjat per veure el nom de l'estació.

Feu clic per veure les observacions i els pronòstics meteorològics.

Per canviar el mapa: feu clic els botons verds amb una creu de color negre per apropar; al botó verd amb un guió per allunyar la imatge; o en les fletxes verdes per a mapes adjacents.


METAR-TAF: